Aviation Digital Data Service (ADDS)

Output produced by METARs form (1446 UTC 23 January 2017)
found at http://aviationweather.gov/adds/metars/
 
KACY 231300Z 2313/2412 07025G40KT 3SM -RA BR OVC010 
     TEMPO 2313/2317 1SM -RADZ OVC008 
     FM231700 06030G40KT 2SM -RA BR OVC007 WS020/08050KT 
     FM240000 03023G33KT 2SM -RA BR OVC007 WS020/08050KT 
     FM240600 36018G28KT 3SM -RA BR OVC007